createdAt,value
2022-10-23T00:01:48.070Z,100950.38
2022-10-23T00:04:45.547Z,100961.53
2022-10-23T00:07:21.632Z,100968.25
2022-10-23T00:09:56.271Z,100967.69
2022-10-23T00:12:58.338Z,100971.41
2022-10-23T00:18:31.023Z,100970.34
2022-10-23T00:23:50.256Z,100969.03
2022-10-23T00:26:23.089Z,100965.66
2022-10-23T00:29:08.094Z,100968.28
2022-10-23T00:34:42.955Z,100967.84
2022-10-23T00:37:46.715Z,100969.88
2022-10-23T00:40:35.690Z,100966.00
2022-10-23T00:43:16.019Z,100970.78
2022-10-23T00:49:34.508Z,100971.44
2022-10-23T00:52:16.480Z,100961.72
2022-10-23T00:57:46.237Z,100965.56
2022-10-23T01:03:39.951Z,100975.44
2022-10-23T01:07:05.284Z,100975.25
2022-10-23T01:10:05.337Z,100975.47
2022-10-23T01:16:07.488Z,100978.81
2022-10-23T01:19:14.936Z,100985.66
2022-10-23T01:25:25.979Z,100973.50
2022-10-23T01:31:14.757Z,100975.09
2022-10-23T01:34:10.773Z,100971.78
2022-10-23T01:36:58.539Z,100959.91
2022-10-23T01:42:28.321Z,100968.03
2022-10-23T01:45:15.280Z,100964.06
2022-10-23T01:47:56.189Z,100966.97
2022-10-23T01:50:43.816Z,100958.94
2022-10-23T01:53:26.903Z,100963.56
2022-10-23T01:56:34.700Z,100968.97
2022-10-23T01:59:20.963Z,100965.38
2022-10-23T02:02:28.651Z,100967.12
2022-10-23T02:05:08.929Z,100973.81
2022-10-23T02:07:55.950Z,100968.28
2022-10-23T02:11:02.065Z,100961.72
2022-10-23T02:14:00.666Z,100956.38
2022-10-23T02:16:51.765Z,100961.31
2022-10-23T02:19:34.091Z,100965.66
2022-10-23T02:25:33.253Z,100971.97
2022-10-23T02:28:22.587Z,100976.19
2022-10-23T02:31:03.207Z,100972.56
2022-10-23T02:34:00.917Z,100976.03
2022-10-23T02:36:53.095Z,100976.06
2022-10-23T02:42:11.585Z,100963.41
2022-10-23T02:45:03.578Z,100973.13
2022-10-23T03:43:09.205Z,100979.28
2022-10-23T03:52:13.284Z,100980.47
2022-10-23T04:26:19.008Z,101002.81
2022-10-23T04:29:09.949Z,101006.37
2022-10-23T04:32:18.532Z,101003.09
2022-10-23T04:35:18.959Z,101011.59
2022-10-23T04:41:19.402Z,101007.47
2022-10-23T04:47:27.722Z,101005.97
2022-10-23T04:50:42.553Z,101009.78
2022-10-23T04:56:27.292Z,100988.59
2022-10-23T04:59:12.785Z,100992.03
2022-10-23T05:05:20.200Z,100985.28
2022-10-23T05:17:06.258Z,100982.25
2022-10-23T05:19:46.132Z,100982.91
2022-10-23T05:22:24.034Z,100979.63
2022-10-23T05:25:05.985Z,100991.62
2022-10-23T05:27:40.723Z,100993.47
2022-10-23T05:30:45.735Z,100998.56
2022-10-23T05:36:56.542Z,100996.03
2022-10-23T05:39:46.430Z,100989.66
2022-10-23T05:42:23.005Z,100994.19
2022-10-23T05:45:11.211Z,100995.25
2022-10-23T05:48:22.753Z,100992.47
2022-10-23T05:51:25.582Z,100988.47
2022-10-23T05:54:17.384Z,100997.78
2022-10-23T05:56:58.075Z,100994.66
2022-10-23T06:02:39.008Z,101004.34
2022-10-23T06:05:22.159Z,101002.25
2022-10-23T06:08:05.320Z,101001.41
2022-10-23T06:10:39.397Z,101008.00
2022-10-23T06:13:11.079Z,100999.72
2022-10-23T06:16:12.171Z,101005.44
2022-10-23T06:19:01.882Z,101014.50
2022-10-23T06:21:49.213Z,101009.72
2022-10-23T06:24:38.571Z,101014.91
2022-10-23T06:27:12.938Z,101015.44
2022-10-23T06:29:56.575Z,101018.94
2022-10-23T06:32:34.976Z,101027.81
2022-10-23T06:35:25.928Z,101029.00
2022-10-23T06:37:58.274Z,101023.63
2022-10-23T06:40:37.170Z,101025.03
2022-10-23T06:43:10.088Z,101028.16
2022-10-23T06:48:21.754Z,101033.56
2022-10-23T06:50:58.821Z,101013.47
2022-10-23T06:53:32.127Z,101021.88
2022-10-23T06:56:14.986Z,101021.06
2022-10-23T06:58:52.071Z,101022.06
2022-10-23T07:04:06.927Z,101032.44
2022-10-23T07:06:46.037Z,101030.06
2022-10-23T07:09:30.867Z,101035.66
2022-10-23T07:12:08.993Z,101035.06
2022-10-23T07:14:47.412Z,101032.78
2022-10-23T07:17:21.599Z,101032.53
2022-10-23T07:19:50.809Z,101018.88
2022-10-23T07:22:18.742Z,101018.38
2022-10-23T07:24:56.216Z,101020.44
2022-10-23T07:27:30.807Z,101023.84
2022-10-23T07:29:58.667Z,101015.56
2022-10-23T07:32:29.307Z,101010.75
2022-10-23T07:34:57.228Z,101009.06
2022-10-23T07:37:27.070Z,101017.50
2022-10-23T07:40:02.022Z,101023.34
2022-10-23T07:42:33.131Z,101027.47
2022-10-23T07:45:00.282Z,101026.03
2022-10-23T07:47:29.281Z,101027.63
2022-10-23T07:50:02.861Z,101029.00
2022-10-23T07:52:32.182Z,101028.19
2022-10-23T07:55:02.535Z,101018.53
2022-10-23T07:57:31.233Z,101027.19
2022-10-23T07:59:58.071Z,101020.97
2022-10-23T08:02:25.095Z,101032.84
2022-10-23T08:04:56.278Z,101031.13
2022-10-23T08:07:27.764Z,101034.88
2022-10-23T08:09:55.640Z,101032.84
2022-10-23T08:12:23.829Z,101021.13
2022-10-23T08:14:56.128Z,101030.00
2022-10-23T08:17:26.341Z,101016.59
2022-10-23T08:19:55.759Z,101013.22
2022-10-23T08:22:24.289Z,101015.03
2022-10-23T08:24:56.389Z,101016.81
2022-10-23T08:50:42.466Z,101034.75
2022-10-23T08:53:48.164Z,101018.03
2022-10-23T08:56:21.147Z,101020.31
2022-10-23T08:58:54.597Z,101028.75
2022-10-23T09:01:27.599Z,101032.19
2022-10-23T09:03:54.953Z,101029.50
2022-10-23T09:06:25.180Z,101031.16
2022-10-23T09:08:53.185Z,101028.19
2022-10-23T09:11:37.904Z,101021.97
2022-10-23T09:14:25.386Z,101023.03
2022-10-23T09:16:52.607Z,101024.91
2022-10-23T09:19:26.529Z,101014.03
2022-10-23T09:21:56.618Z,101010.34
2022-10-23T09:24:25.822Z,101013.91
2022-10-23T09:27:17.327Z,100997.09
2022-10-23T09:29:49.760Z,100993.34
2022-10-23T09:32:38.509Z,101001.12
2022-10-23T09:35:05.842Z,101001.84
2022-10-23T09:37:40.346Z,100996.53
2022-10-23T09:40:16.917Z,101000.63
2022-10-23T09:43:10.168Z,100991.50
2022-10-23T09:45:38.745Z,101006.56
2022-10-23T09:48:13.531Z,100999.13
2022-10-23T09:50:51.466Z,100996.19
2022-10-23T09:53:23.328Z,100995.88
2022-10-23T10:19:06.405Z,100975.06
2022-10-23T10:21:38.857Z,100976.91
2022-10-23T10:24:09.076Z,100975.31
2022-10-23T10:26:56.212Z,100976.44
2022-10-23T10:29:31.959Z,100969.81
2022-10-23T10:32:04.284Z,100971.34
2022-10-23T10:34:51.616Z,100958.81
2022-10-23T10:37:28.837Z,100956.22
2022-10-23T10:40:11.749Z,100966.06
2022-10-23T10:42:38.684Z,100953.34
2022-10-23T10:45:15.974Z,100947.50
2022-10-23T10:47:45.916Z,100945.00
2022-10-23T10:50:45.416Z,100944.25
2022-10-23T10:53:21.356Z,100938.53
2022-10-23T10:55:50.836Z,100935.94
2022-10-23T10:58:21.788Z,100928.31
2022-10-23T11:00:50.713Z,100937.09
2022-10-23T11:03:28.726Z,100929.28
2022-10-23T11:08:28.754Z,100912.06
2022-10-23T11:10:59.017Z,100910.84
2022-10-23T11:13:37.016Z,100914.94
2022-10-23T11:16:09.181Z,100904.84
2022-10-23T11:18:36.648Z,100906.56
2022-10-23T11:21:08.420Z,100905.06
2022-10-23T11:23:42.870Z,100898.00
2022-10-23T11:26:24.189Z,100888.44
2022-10-23T11:29:13.987Z,100887.06
2022-10-23T11:31:53.731Z,100875.06
2022-10-23T11:34:39.348Z,100883.47
2022-10-23T11:37:07.037Z,100876.69
2022-10-23T11:39:34.937Z,100881.34
2022-10-23T11:42:04.759Z,100873.22
2022-10-23T11:44:50.587Z,100869.31
2022-10-23T11:47:39.236Z,100863.81
2022-10-23T11:50:06.995Z,100858.38
2022-10-23T11:52:45.741Z,100857.06
2022-10-23T11:55:19.363Z,100861.88
2022-10-23T11:58:02.595Z,100849.00
2022-10-23T12:00:30.170Z,100858.41
2022-10-23T12:02:59.131Z,100852.88
2022-10-23T12:05:35.756Z,100840.00
2022-10-23T12:08:04.597Z,100838.81
2022-10-23T12:10:34.710Z,100833.19
2022-10-23T12:13:05.148Z,100829.47
2022-10-23T12:15:33.020Z,100835.59
2022-10-23T12:18:14.752Z,100826.16
2022-10-23T12:20:41.630Z,100820.56
2022-10-23T12:23:27.306Z,100822.41
2022-10-23T12:25:57.158Z,100815.25
2022-10-23T12:28:35.406Z,100816.78
2022-10-23T12:31:20.533Z,100811.25
2022-10-23T12:33:58.901Z,100805.22
2022-10-23T12:36:25.908Z,100801.28
2022-10-23T12:38:55.001Z,100801.56
2022-10-23T12:41:24.607Z,100788.59
2022-10-23T12:43:59.179Z,100783.13
2022-10-23T12:46:34.277Z,100784.25
2022-10-23T12:49:02.655Z,100774.47
2022-10-23T12:51:30.535Z,100775.63
2022-10-23T12:53:57.422Z,100760.50
2022-10-23T12:56:29.420Z,100762.97
2022-10-23T12:59:01.736Z,100763.38
2022-10-23T13:01:30.280Z,100766.37
2022-10-23T13:04:03.119Z,100766.28
2022-10-23T13:06:29.886Z,100766.00
2022-10-23T13:08:57.527Z,100762.34
2022-10-23T13:11:25.216Z,100765.87
2022-10-23T13:13:52.391Z,100769.00
2022-10-23T13:16:23.366Z,100754.44
2022-10-23T13:18:50.319Z,100754.72
2022-10-23T13:21:18.955Z,100757.59
2022-10-23T13:23:46.171Z,100757.47
2022-10-23T13:26:32.026Z,100746.63
2022-10-23T13:28:59.117Z,100754.03
2022-10-23T13:31:34.565Z,100750.47
2022-10-23T13:34:01.433Z,100751.94
2022-10-23T13:36:29.567Z,100749.50
2022-10-23T13:38:59.077Z,100744.34
2022-10-23T13:41:26.679Z,100737.75
2022-10-23T13:43:53.443Z,100732.13
2022-10-23T13:46:21.993Z,100726.50
2022-10-23T13:48:49.340Z,100727.38
2022-10-23T13:51:38.845Z,100730.22
2022-10-23T13:54:14.796Z,100731.38
2022-10-23T13:56:41.752Z,100723.03
2022-10-23T13:59:10.427Z,100724.63
2022-10-23T14:01:37.435Z,100721.87
2022-10-23T14:04:05.030Z,100709.00
2022-10-23T14:06:32.498Z,100696.44
2022-10-23T14:08:59.278Z,100696.06
2022-10-23T14:11:26.498Z,100685.03
2022-10-23T15:05:11.460Z,100664.69
2022-10-23T15:07:48.974Z,100655.94
2022-10-23T15:12:49.698Z,100659.72
2022-10-23T15:15:16.419Z,100642.88
2022-10-23T15:17:44.225Z,100645.09
2022-10-23T15:20:11.371Z,100649.63
2022-10-23T15:22:38.140Z,100660.84
2022-10-23T15:25:05.130Z,100655.06
2022-10-23T15:27:31.947Z,100648.22
2022-10-23T15:29:58.843Z,100647.13
2022-10-23T15:32:25.582Z,100650.03
2022-10-23T15:34:53.965Z,100649.56
2022-10-23T15:37:20.821Z,100646.38
2022-10-23T15:39:47.735Z,100656.47
2022-10-23T15:42:14.586Z,100655.41
2022-10-23T15:44:41.629Z,100658.22
2022-10-23T15:47:08.642Z,100661.59
2022-10-23T15:49:35.721Z,100658.16
2022-10-23T15:52:04.494Z,100655.88
2022-10-23T15:54:32.877Z,100654.31
2022-10-23T15:57:00.901Z,100652.44
2022-10-23T15:59:28.949Z,100640.91
2022-10-23T16:01:56.574Z,100640.59
2022-10-23T16:04:23.803Z,100648.56
2022-10-23T16:06:50.895Z,100646.16
2022-10-23T16:09:17.862Z,100648.81
2022-10-23T16:11:44.717Z,100639.66
2022-10-23T16:14:16.272Z,100644.75
2022-10-23T16:16:43.412Z,100648.22
2022-10-23T16:19:10.744Z,100647.06
2022-10-23T16:21:37.622Z,100656.22
2022-10-23T16:24:05.995Z,100648.16
2022-10-23T16:26:33.390Z,100647.97
2022-10-23T16:29:03.509Z,100659.53
2022-10-23T16:31:30.906Z,100654.22
2022-10-23T16:33:59.221Z,100663.59
2022-10-23T16:36:26.466Z,100643.81
2022-10-23T16:38:53.663Z,100654.28
2022-10-23T16:41:20.535Z,100655.09
2022-10-23T16:43:47.585Z,100657.16
2022-10-23T16:46:15.950Z,100664.69
2022-10-23T16:48:43.371Z,100660.47
2022-10-23T16:51:11.583Z,100662.53
2022-10-23T16:53:38.750Z,100659.69
2022-10-23T16:56:06.388Z,100665.59
2022-10-23T16:58:33.962Z,100663.94
2022-10-23T17:01:02.435Z,100664.06
2022-10-23T17:03:30.637Z,100676.94
2022-10-23T17:06:01.655Z,100668.53
2022-10-23T17:08:29.379Z,100666.47
2022-10-23T17:11:10.790Z,100672.28
2022-10-23T17:13:39.499Z,100659.00
2022-10-23T17:16:12.723Z,100667.87
2022-10-23T17:18:43.673Z,100659.16
2022-10-23T17:21:11.324Z,100659.84
2022-10-23T17:23:38.282Z,100666.41
2022-10-23T17:26:08.573Z,100667.66
2022-10-23T17:28:40.149Z,100671.37
2022-10-23T17:31:13.388Z,100675.13
2022-10-23T17:33:40.844Z,100676.91
2022-10-23T17:36:08.013Z,100669.56
2022-10-23T17:38:36.073Z,100665.56
2022-10-23T17:41:11.921Z,100664.28
2022-10-23T17:43:38.887Z,100658.88
2022-10-23T17:46:06.959Z,100663.25
2022-10-23T17:48:35.475Z,100659.41
2022-10-23T17:51:03.720Z,100654.34
2022-10-23T17:53:30.657Z,100652.06
2022-10-23T17:55:57.728Z,100652.47
2022-10-23T17:58:27.501Z,100656.22
2022-10-23T18:00:54.542Z,100646.81
2022-10-23T18:03:21.550Z,100650.22
2022-10-23T18:05:49.766Z,100653.25
2022-10-23T18:08:17.562Z,100648.06
2022-10-23T18:10:44.418Z,100640.84
2022-10-23T18:13:11.226Z,100656.94
2022-10-23T18:15:39.694Z,100656.34
2022-10-23T18:18:08.166Z,100650.09
2022-10-23T18:20:39.741Z,100648.25
2022-10-23T18:23:06.951Z,100649.25
2022-10-23T18:25:34.455Z,100653.00
2022-10-23T18:28:02.661Z,100652.50
2022-10-23T18:30:29.702Z,100656.38
2022-10-23T18:32:58.407Z,100657.37
2022-10-23T18:35:25.640Z,100655.75
2022-10-23T18:37:52.528Z,100661.97
2022-10-23T18:40:20.544Z,100656.94
2022-10-23T18:42:48.827Z,100652.03
2022-10-23T18:45:15.819Z,100638.88
2022-10-23T18:47:43.388Z,100635.47
2022-10-23T18:50:10.494Z,100635.69
2022-10-23T18:52:37.305Z,100630.78
2022-10-23T18:55:06.214Z,100636.78
2022-10-23T18:57:33.838Z,100627.78
2022-10-23T19:00:01.526Z,100627.16
2022-10-23T19:02:28.868Z,100625.84
2022-10-23T19:04:56.032Z,100622.06
2022-10-23T19:07:22.919Z,100619.81
2022-10-23T19:09:49.705Z,100620.31
2022-10-23T19:12:18.077Z,100615.38
2022-10-23T19:14:45.511Z,100616.78
2022-10-23T19:17:18.667Z,100614.84
2022-10-23T19:19:50.268Z,100615.09
2022-10-23T19:22:17.431Z,100622.84
2022-10-23T19:24:46.007Z,100624.56
2022-10-23T19:27:14.200Z,100623.34
2022-10-23T19:29:43.589Z,100618.78
2022-10-23T19:32:11.444Z,100617.91
2022-10-23T19:34:40.915Z,100626.50
2022-10-23T19:37:08.350Z,100629.00
2022-10-23T19:39:36.028Z,100627.72
2022-10-23T19:42:04.228Z,100629.94
2022-10-23T19:44:32.140Z,100626.16
2022-10-23T19:46:59.023Z,100631.22
2022-10-23T19:49:26.051Z,100623.59
2022-10-23T19:51:54.030Z,100629.41
2022-10-23T19:54:22.224Z,100624.66
2022-10-23T19:56:49.347Z,100622.34
2022-10-23T19:59:16.668Z,100623.66
2022-10-23T20:01:48.768Z,100619.81
2022-10-23T20:04:17.017Z,100620.84
2022-10-23T20:06:44.279Z,100622.63
2022-10-23T20:09:11.326Z,100618.16
2022-10-23T20:11:39.925Z,100609.97
2022-10-23T20:14:07.722Z,100608.06
2022-10-23T20:16:39.003Z,100613.00
2022-10-23T20:19:14.591Z,100608.91
2022-10-23T20:21:45.881Z,100616.94
2022-10-23T20:24:15.012Z,100617.25
2022-10-23T20:26:46.635Z,100614.41
2022-10-23T20:29:13.963Z,100615.06
2022-10-23T20:31:40.862Z,100620.81
2022-10-23T20:34:08.716Z,100622.78
2022-10-23T20:36:37.957Z,100621.88
2022-10-23T20:39:10.492Z,100616.22
2022-10-23T20:41:39.898Z,100621.13
2022-10-23T20:44:08.642Z,100606.56
2022-10-23T20:46:36.342Z,100613.87
2022-10-23T20:49:03.859Z,100619.19
2022-10-23T20:51:32.229Z,100619.16
2022-10-23T20:53:59.588Z,100617.13
2022-10-23T20:56:44.284Z,100613.56
2022-10-23T20:59:14.697Z,100615.19
2022-10-23T21:01:42.888Z,100613.34
2022-10-23T21:04:11.978Z,100610.16
2022-10-23T21:06:51.924Z,100602.59
2022-10-23T21:09:25.849Z,100609.84
2022-10-23T21:11:54.371Z,100614.56
2022-10-23T21:14:23.301Z,100612.25
2022-10-23T21:16:52.849Z,100610.53
2022-10-23T21:19:19.897Z,100611.25
2022-10-23T21:21:48.756Z,100614.28
2022-10-23T21:24:16.416Z,100601.75
2022-10-23T21:26:44.201Z,100602.78
2022-10-23T21:29:20.127Z,100595.72
2022-10-23T21:31:55.402Z,100604.78
2022-10-23T21:34:22.587Z,100597.19
2022-10-23T21:39:39.255Z,100591.91
2022-10-23T21:42:08.064Z,100584.81
2022-10-23T21:44:34.872Z,100581.94
2022-10-23T21:47:01.774Z,100583.38
2022-10-23T21:49:28.566Z,100582.16
2022-10-23T21:51:55.438Z,100594.03
2022-10-23T21:54:22.701Z,100589.31
2022-10-23T21:56:50.760Z,100595.56
2022-10-23T21:59:18.629Z,100594.34
2022-10-23T22:01:48.754Z,100592.81
2022-10-23T22:04:17.507Z,100595.53
2022-10-23T22:06:45.244Z,100592.84
2022-10-23T22:09:13.447Z,100598.41
2022-10-23T22:11:40.409Z,100607.72
2022-10-23T22:14:07.285Z,100608.09
2022-10-23T22:16:34.242Z,100603.13
2022-10-23T22:19:01.448Z,100603.34
2022-10-23T22:21:29.786Z,100604.38
2022-10-23T22:23:59.079Z,100606.66
2022-10-23T22:26:27.911Z,100599.37
2022-10-23T22:28:56.151Z,100595.75
2022-10-23T22:31:25.289Z,100603.69
2022-10-23T22:33:52.542Z,100599.47
2022-10-23T22:36:19.410Z,100599.84
2022-10-23T22:38:46.280Z,100599.53
2022-10-23T22:41:13.783Z,100601.09
2022-10-23T22:43:40.716Z,100609.72
2022-10-23T22:46:08.994Z,100601.53
2022-10-23T22:48:36.583Z,100603.59
2022-10-23T22:51:06.307Z,100603.28
2022-10-23T22:53:35.316Z,100609.56
2022-10-23T22:56:05.703Z,100602.25
2022-10-23T22:58:32.423Z,100607.69
2022-10-23T23:01:04.220Z,100605.00
2022-10-23T23:03:31.681Z,100606.34
2022-10-23T23:05:58.621Z,100609.59
2022-10-23T23:08:25.600Z,100611.06
2022-10-23T23:10:58.687Z,100605.50
2022-10-23T23:13:25.847Z,100604.81
2022-10-23T23:15:53.141Z,100595.34
2022-10-23T23:18:20.716Z,100596.25
2022-10-23T23:20:49.554Z,100586.84
2022-10-23T23:23:16.730Z,100595.88
2022-10-23T23:25:46.126Z,100589.94
2022-10-23T23:28:16.144Z,100590.78
2022-10-23T23:30:43.838Z,100587.44
2022-10-23T23:33:11.664Z,100589.13
2022-10-23T23:35:42.279Z,100586.66
2022-10-23T23:38:09.443Z,100581.44
2022-10-23T23:40:37.673Z,100591.91
2022-10-23T23:43:04.974Z,100599.16
2022-10-23T23:45:34.638Z,100584.72
2022-10-23T23:48:02.211Z,100587.16
2022-10-23T23:50:31.147Z,100587.03
2022-10-23T23:52:58.039Z,100569.56
2022-10-23T23:55:26.406Z,100565.72
2022-10-23T23:57:57.264Z,100567.34
